Aktuální počasí v Česku a ve světě - METAR

Seznam meteostanic umístěných nejčasteji na letišti v ČR a ve světě

Vyhledat místa podle abecedy:
A B C D E F G H I J K L M N O P Q R S T U V W X Y Z

Filtrovat:

ID stanice:
a/nebo
Název místa (fulltext):
 
Místo (ID)Naposledy načteno 
Doksany - Litoměřice (Doksany) 29.07.2021 08:00 UTC Zobrazit data
Místo: Doksany - Litoměřice
Teplota: 21 °C (pocitová: 20 °C)
Vítr: 6 m/s z(e) 240°
Počasí: skorojasno
Dohlednost: 45 km
Zákl. oblačnosti: 1/8 1050 m
Vlhkost: 60%
Dukovany (Dukovany) 29.07.2021 08:00 UTC Zobrazit data
Místo: Dukovany
Teplota: 22 °C (pocitová: 21.7 °C)
Vítr: 4 m/s z(e) 300°
Počasí: skorojasno
Dohlednost: 30 km
Zákl. oblačnosti: 1/8 900 m
Vlhkost: 65%
Dakar (GOOY) 29.07.2021 08:00 UTC Zobrazit METAR
GOOY 290800Z 00000KT 9999 BKN013 27/23 Q1012
Damascus (OSDI) 29.07.2021 08:00 UTC Zobrazit METAR
OSDI 290800Z 17010KT CAVOK 33/12 Q1008
Debrecen (LHDC) 29.07.2021 07:45 UTC Zobrazit METAR
LHDC 290745Z AUTO 24010KT 210V290 CAVOK 26/18 Q1012 NOSIG
Delhi (VIDP) 29.07.2021 06:00 UTC Zobrazit METAR
VIDP 290600Z 29005KT 3500 BR BKN025 OVC090 30/29 Q0999 NOSIG
Dhaka (VGZR) Zatím nenačteno  
Diego Garcia (FJDG) 29.07.2021 07:55 UTC Zobrazit METAR
FJDG 290755Z 14014G21KT 9999 FEW018 SCT050 BKN080 28/24 A2989 RMK SLP119 T02800241
Djibouti (HDAM) 28.07.2021 15:00 UTC Zobrazit METAR
HDAM 281500Z 14008KT 9999 FEW023 FEW024 BKN133 36/35 Q1001
Dnipropetrovs'k (UKDD) 12.08.2013 14:00 UTC Zobrazit METAR
UKDD 121400Z CAVOK 33/13 Q1012 08090070 NOSIG
Dodoma (HTDO) 29.07.2021 07:00 UTC Zobrazit METAR
HTDO 290700Z 09024KT 9999 FEW020 20/12 Q1024 NOSIG
Doha (OTBD) 29.07.2021 08:00 UTC Zobrazit METAR
OTBD 290800Z AUTO 34018KT CAVOK 44/18 Q0994 NOSIG
Dortmund (EDLW) 29.07.2021 07:50 UTC Zobrazit METAR
EDLW 290750Z 22017KT 9999 SCT030 17/11 Q1011
Dresden (EDDC) 29.07.2021 07:50 UTC Zobrazit METAR
EDDC 290750Z 25010KT 210V280 9999 FEW033 21/11 Q1013 TEMPO 24015G25KT
Dublin (EIDW) 29.07.2021 08:00 UTC Zobrazit METAR
EIDW 290800Z 27015KT 9999 FEW013 14/10 Q1007 NOSIG
Dubrovnik (LDDU) 29.07.2021 08:00 UTC Zobrazit METAR
LDDU 290800Z 17007KT 140V230 CAVOK 32/12 Q1014 TEMPO 17012KT
Dushanbe (UTDD) Zatím nenačteno  
Dusseldorf (EDDL) 29.07.2021 07:50 UTC Zobrazit METAR
EDDL 290750Z 24019KT 9999 SCT030 17/11 Q1012 NOSIG
Dzaoudzi (FMCZ) 29.07.2021 08:00 UTC Zobrazit METAR
FMCZ 290800Z AUTO 16014KT CAVOK 28/17 Q1019 NOSIG
Reklama

Reklama


Newslettter

Počasí na Váš email

Emaily jsou bez reklamy a bez spamu



Odhlásit newsletter



Kontaktujte nás

Kontaktujte Slunečno.cz

Kontaktujte provozovatele Slunecno.cz

Další české internetové stránky (nejen) o počasí najdete v katalogu TOPlist - weby o počasí nebo vyhledejte na internetu, co jste tu na Počasí Slunečno Slunečnu zatím nenašli:
Přidat mezzi oblíbené stránkyPřidat Slunečno.cz do oblíbených | Nastavit jako HOMEPAGENastavit Slunečno.cz jako HOMEPAGE

Posunout stránku nahoru Posunout stránku nahoru Posunout stránku nahoru
Reklama